createdAt,value
2017-11-12T00:00:17.761Z,0
2017-11-12T00:00:58.248Z,0
2017-11-12T00:01:38.717Z,0
2017-11-12T00:02:19.212Z,0
2017-11-12T00:02:59.697Z,0
2017-11-12T00:03:40.177Z,0
2017-11-12T00:04:20.664Z,0
2017-11-12T00:05:01.144Z,0
2017-11-12T00:05:41.628Z,0
2017-11-12T00:06:22.122Z,0
2017-11-12T00:07:02.604Z,0
2017-11-12T00:07:43.087Z,0
2017-11-12T00:08:23.577Z,0
2017-11-12T00:09:04.069Z,0
2017-11-12T00:09:44.539Z,0
2017-11-12T00:10:25.016Z,0
2017-11-12T00:11:05.490Z,0
2017-11-12T00:11:45.982Z,0
2017-11-12T00:12:26.473Z,0
2017-11-12T00:13:06.946Z,0
2017-11-12T00:13:47.433Z,0
2017-11-12T00:14:27.920Z,0
2017-11-12T00:15:08.397Z,0
2017-11-12T00:15:48.863Z,0
2017-11-12T00:16:29.344Z,0
2017-11-12T00:17:09.840Z,0
2017-11-12T00:17:50.325Z,0
2017-11-12T00:18:30.816Z,0
2017-11-12T00:19:11.303Z,0
2017-11-12T00:19:51.818Z,0
2017-11-12T00:20:32.273Z,0
2017-11-12T00:21:12.752Z,0
2017-11-12T00:21:53.229Z,0
2017-11-12T00:22:33.719Z,0
2017-11-12T00:23:14.209Z,0
2017-11-12T00:23:54.701Z,0
2017-11-12T00:24:35.186Z,0
2017-11-12T00:25:15.670Z,0
2017-11-12T00:25:56.149Z,0
2017-11-12T00:26:36.620Z,0
2017-11-12T00:27:17.115Z,0
2017-11-12T00:27:57.607Z,0
2017-11-12T00:28:38.087Z,0
2017-11-12T00:29:18.575Z,0
2017-11-12T00:29:59.066Z,0
2017-11-12T00:30:39.548Z,0
2017-11-12T00:31:20.026Z,0
2017-11-12T00:32:00.511Z,0
2017-11-12T00:32:41.008Z,0
2017-11-12T00:33:21.491Z,0
2017-11-12T00:34:01.978Z,0
2017-11-12T00:34:42.489Z,0
2017-11-12T00:35:22.955Z,0
2017-11-12T00:36:03.438Z,0
2017-11-12T00:36:43.934Z,0
2017-11-12T00:37:24.426Z,0
2017-11-12T00:38:04.909Z,0
2017-11-12T00:38:45.399Z,0
2017-11-12T00:39:25.874Z,0
2017-11-12T00:40:06.363Z,0
2017-11-12T00:40:46.837Z,0
2017-11-12T00:41:27.334Z,0
2017-11-12T00:42:07.842Z,0
2017-11-12T00:42:48.316Z,0
2017-11-12T00:43:28.803Z,0
2017-11-12T00:44:09.282Z,0
2017-11-12T00:44:49.783Z,0
2017-11-12T00:45:30.259Z,0
2017-11-12T00:46:10.750Z,0
2017-11-12T00:46:51.231Z,0
2017-11-12T00:47:31.724Z,0
2017-11-12T00:48:12.196Z,0
2017-11-12T00:48:52.665Z,0
2017-11-12T00:49:33.156Z,0
2017-11-12T00:50:13.651Z,0
2017-11-12T00:50:54.134Z,0
2017-11-12T00:51:34.631Z,0
2017-11-12T00:52:15.117Z,0
2017-11-12T00:52:55.584Z,0
2017-11-12T00:53:36.066Z,0
2017-11-12T00:54:16.551Z,0
2017-11-12T00:54:57.026Z,0
2017-11-12T00:55:37.514Z,0
2017-11-12T00:56:18.014Z,0
2017-11-12T00:56:58.504Z,0
2017-11-12T00:57:38.994Z,0
2017-11-12T00:58:19.459Z,0
2017-11-12T00:58:59.947Z,0
2017-11-12T00:59:40.445Z,0
2017-11-12T01:00:20.932Z,0
2017-11-12T01:01:01.416Z,0
2017-11-12T01:01:41.901Z,0
2017-11-12T01:02:22.385Z,0
2017-11-12T01:03:02.868Z,0
2017-11-12T01:03:43.370Z,0
2017-11-12T01:04:23.832Z,0
2017-11-12T01:05:04.300Z,0
2017-11-12T01:05:44.787Z,0
2017-11-12T01:06:25.283Z,0
2017-11-12T01:07:05.800Z,0
2017-11-12T01:07:46.317Z,0
2017-11-12T01:08:26.803Z,0
2017-11-12T01:09:07.297Z,0
2017-11-12T01:09:47.771Z,0
2017-11-12T01:10:28.253Z,0
2017-11-12T01:11:08.760Z,0
2017-11-12T01:11:49.231Z,0
2017-11-12T01:12:29.707Z,0
2017-11-12T01:13:10.187Z,0
2017-11-12T01:13:50.680Z,0
2017-11-12T01:14:31.216Z,0
2017-11-12T01:15:11.708Z,0
2017-11-12T01:15:52.191Z,0
2017-11-12T01:16:32.683Z,0
2017-11-12T01:17:13.154Z,0
2017-11-12T01:17:53.632Z,0
2017-11-12T01:18:34.122Z,0
2017-11-12T01:19:14.608Z,0
2017-11-12T01:19:55.106Z,0
2017-11-12T01:20:35.600Z,0
2017-11-12T01:21:16.099Z,0
2017-11-12T01:21:56.572Z,0
2017-11-12T01:22:37.076Z,0
2017-11-12T01:23:17.551Z,0
2017-11-12T01:23:58.037Z,0
2017-11-12T01:24:38.534Z,0
2017-11-12T01:25:19.015Z,0
2017-11-12T01:25:59.512Z,0
2017-11-12T01:26:39.998Z,0
2017-11-12T01:27:20.496Z,0
2017-11-12T01:28:01.001Z,0
2017-11-12T01:28:41.442Z,0
2017-11-12T01:29:21.960Z,0
2017-11-12T01:30:02.415Z,0
2017-11-12T01:30:42.929Z,0
2017-11-12T01:31:23.394Z,0
2017-11-12T01:32:03.873Z,0
2017-11-12T01:32:44.360Z,0
2017-11-12T01:33:24.847Z,0
2017-11-12T01:34:05.330Z,0
2017-11-12T01:34:45.827Z,0
2017-11-12T01:35:26.316Z,0
2017-11-12T01:36:06.797Z,0
2017-11-12T01:36:47.284Z,0
2017-11-12T01:37:27.771Z,0
2017-11-12T01:38:08.262Z,0
2017-11-12T01:38:48.743Z,0
2017-11-12T01:39:29.239Z,0
2017-11-12T01:40:09.710Z,0
2017-11-12T01:40:50.190Z,0
2017-11-12T01:41:30.672Z,0
2017-11-12T01:42:11.148Z,0
2017-11-12T01:42:51.644Z,0
2017-11-12T01:43:32.142Z,0
2017-11-12T01:44:12.611Z,0
2017-11-12T01:44:53.097Z,0
2017-11-12T01:45:33.587Z,0
2017-11-12T01:46:14.075Z,0
2017-11-12T01:46:54.561Z,0
2017-11-12T01:47:35.057Z,0
2017-11-12T01:48:15.569Z,0
2017-11-12T01:48:56.057Z,0
2017-11-12T01:49:36.519Z,0
2017-11-12T01:50:17.012Z,0
2017-11-12T01:50:57.503Z,0
2017-11-12T01:51:38.009Z,0
2017-11-12T01:52:18.498Z,0
2017-11-12T01:52:58.983Z,0
2017-11-12T01:53:39.480Z,0
2017-11-12T01:54:19.970Z,0
2017-11-12T01:55:00.442Z,0
2017-11-12T01:55:40.935Z,0
2017-11-12T01:56:21.424Z,0
2017-11-12T01:57:01.906Z,0
2017-11-12T01:57:42.409Z,0
2017-11-12T01:58:22.904Z,0
2017-11-12T01:59:03.399Z,0
2017-11-12T01:59:43.872Z,0
2017-11-12T02:00:24.368Z,0
2017-11-12T02:01:04.849Z,0
2017-11-12T02:01:45.332Z,0
2017-11-12T02:02:25.822Z,0
2017-11-12T02:03:06.313Z,0
2017-11-12T02:03:46.796Z,0
2017-11-12T02:04:27.295Z,0
2017-11-12T02:05:07.790Z,0
2017-11-12T02:05:48.269Z,0
2017-11-12T02:06:28.729Z,0
2017-11-12T02:07:09.224Z,0
2017-11-12T02:07:49.693Z,0
2017-11-12T02:08:30.184Z,0
2017-11-12T02:09:10.662Z,0
2017-11-12T02:09:51.149Z,0
2017-11-12T02:10:31.636Z,0
2017-11-12T02:11:12.124Z,0
2017-11-12T02:11:52.615Z,0
2017-11-12T02:12:33.118Z,0
2017-11-12T02:13:13.606Z,0
2017-11-12T02:13:54.092Z,0
2017-11-12T02:14:34.584Z,0
2017-11-12T02:15:15.081Z,0
2017-11-12T02:15:55.559Z,0
2017-11-12T02:16:36.058Z,0
2017-11-12T02:17:16.552Z,0
2017-11-12T02:17:57.041Z,0
2017-11-12T02:18:37.527Z,0
2017-11-12T02:19:18.030Z,0
2017-11-12T02:19:58.505Z,0
2017-11-12T02:20:38.994Z,0
2017-11-12T02:21:19.485Z,0
2017-11-12T02:21:59.968Z,0
2017-11-12T02:22:40.462Z,0
2017-11-12T02:23:20.944Z,0
2017-11-12T02:24:01.442Z,0
2017-11-12T02:24:41.927Z,0
2017-11-12T02:25:22.413Z,0
2017-11-12T02:26:02.918Z,0
2017-11-12T02:26:43.414Z,0
2017-11-12T02:27:23.909Z,0
2017-11-12T02:28:04.395Z,0
2017-11-12T02:28:44.884Z,0
2017-11-12T02:29:25.379Z,0
2017-11-12T02:30:05.872Z,0
2017-11-12T02:30:46.366Z,0
2017-11-12T02:31:26.843Z,0
2017-11-12T02:32:07.357Z,0
2017-11-12T02:32:47.820Z,0
2017-11-12T02:34:45.433Z,0
2017-11-12T02:35:25.924Z,0
2017-11-12T02:36:06.415Z,0
2017-11-12T02:36:46.905Z,0
2017-11-12T02:37:27.382Z,0
2017-11-12T02:38:07.852Z,0
2017-11-12T02:38:48.348Z,0
2017-11-12T02:39:28.827Z,0
2017-11-12T02:40:09.340Z,0
2017-11-12T02:40:49.793Z,0
2017-11-12T02:41:30.283Z,0
2017-11-12T02:42:10.777Z,0
2017-11-12T02:42:51.244Z,0
2017-11-12T02:43:31.753Z,0
2017-11-12T02:44:12.226Z,0
2017-11-12T02:44:52.715Z,0
2017-11-12T02:45:33.200Z,0
2017-11-12T02:46:13.673Z,0
2017-11-12T02:46:54.167Z,0
2017-11-12T02:47:34.631Z,0
2017-11-12T02:48:15.130Z,0
2017-11-12T02:48:55.600Z,0
2017-11-12T02:49:36.086Z,0
2017-11-12T02:50:16.586Z,0
2017-11-12T02:50:57.095Z,0
2017-11-12T02:51:37.546Z,0
2017-11-12T02:52:18.025Z,0
2017-11-12T02:52:58.501Z,0
2017-11-12T02:53:38.994Z,0
2017-11-12T02:54:19.478Z,0
2017-11-12T02:54:59.964Z,0
2017-11-12T02:55:40.438Z,0
2017-11-12T02:56:20.920Z,0
2017-11-12T02:57:01.399Z,0
2017-11-12T02:57:41.896Z,0
2017-11-12T02:58:22.735Z,0
2017-11-12T02:59:03.244Z,0
2017-11-12T02:59:43.700Z,0
2017-11-12T03:00:24.181Z,0
2017-11-12T03:01:04.667Z,0
2017-11-12T03:01:45.157Z,0
2017-11-12T03:02:25.632Z,0
2017-11-12T03:03:06.120Z,0
2017-11-12T03:03:46.600Z,0
2017-11-12T03:04:27.089Z,0
2017-11-12T03:05:07.570Z,0
2017-11-12T03:05:48.060Z,0
2017-11-12T03:06:28.537Z,0
2017-11-12T03:07:09.030Z,0
2017-11-12T03:07:49.511Z,0
2017-11-12T03:08:29.992Z,0
2017-11-12T03:09:10.480Z,0
2017-11-12T03:09:50.969Z,0
2017-11-12T03:10:31.447Z,0
2017-11-12T03:11:11.924Z,0
2017-11-12T03:11:52.410Z,0
2017-11-12T03:12:32.901Z,0
2017-11-12T03:13:13.379Z,0
2017-11-12T03:13:53.867Z,0
2017-11-12T03:14:34.365Z,0
2017-11-12T03:15:14.841Z,0
2017-11-12T03:15:55.329Z,0
2017-11-12T03:16:35.821Z,0
2017-11-12T03:17:16.312Z,0
2017-11-12T03:17:56.805Z,0
2017-11-12T03:18:37.294Z,0
2017-11-12T03:19:17.795Z,0
2017-11-12T03:19:58.283Z,0
2017-11-12T03:20:38.767Z,0
2017-11-12T03:21:19.261Z,0
2017-11-12T03:21:59.774Z,0
2017-11-12T03:22:40.218Z,0
2017-11-12T03:23:20.701Z,0
2017-11-12T03:24:01.203Z,0
2017-11-12T03:24:41.707Z,0
2017-11-12T03:25:22.153Z,0
2017-11-12T03:26:02.646Z,0
2017-11-12T03:26:43.143Z,0
2017-11-12T03:27:23.627Z,0
2017-11-12T03:28:04.121Z,0
2017-11-12T03:28:44.616Z,0
2017-11-12T03:29:25.095Z,0
2017-11-12T03:30:05.593Z,0
2017-11-12T03:30:46.095Z,0
2017-11-12T03:31:26.583Z,0
2017-11-12T03:32:07.078Z,0
2017-11-12T03:32:47.573Z,0
2017-11-12T03:33:28.055Z,0
2017-11-12T03:34:08.563Z,0
2017-11-12T03:34:49.042Z,0
2017-11-12T03:35:29.525Z,0
2017-11-12T03:36:10.044Z,0
2017-11-12T03:36:50.491Z,0
2017-11-12T03:37:30.978Z,0
2017-11-12T03:38:11.480Z,0
2017-11-12T03:38:51.935Z,0
2017-11-12T03:39:32.423Z,0
2017-11-12T03:40:12.916Z,0
2017-11-12T03:40:53.397Z,0
2017-11-12T03:41:33.886Z,0
2017-11-12T03:42:14.377Z,0
2017-11-12T03:42:54.868Z,0
2017-11-12T03:43:35.358Z,0
2017-11-12T03:44:15.838Z,0
2017-11-12T03:44:56.326Z,0
2017-11-12T03:45:36.811Z,0
2017-11-12T03:46:17.303Z,0
2017-11-12T03:46:57.793Z,0
2017-11-12T03:47:38.273Z,0
2017-11-12T03:48:18.757Z,0
2017-11-12T03:48:59.252Z,0
2017-11-12T03:49:39.753Z,0
2017-11-12T03:50:20.238Z,0
2017-11-12T03:51:00.725Z,0
2017-11-12T03:51:41.224Z,0
2017-11-12T03:52:21.710Z,0
2017-11-12T03:53:02.187Z,0
2017-11-12T03:53:42.684Z,0
2017-11-12T03:54:23.169Z,0
2017-11-12T03:55:03.656Z,0
2017-11-12T03:55:44.138Z,0
2017-11-12T03:56:24.640Z,0
2017-11-12T03:57:05.124Z,0
2017-11-12T03:57:45.612Z,0
2017-11-12T03:58:26.104Z,0
2017-11-12T03:59:06.588Z,0
2017-11-12T03:59:47.083Z,0
2017-11-12T04:00:27.555Z,0
2017-11-12T04:01:08.050Z,0
2017-11-12T04:01:48.554Z,0
2017-11-12T04:02:29.062Z,0
2017-11-12T04:03:09.547Z,0
2017-11-12T04:03:50.041Z,0
2017-11-12T04:04:30.536Z,0
2017-11-12T04:05:11.021Z,0
2017-11-12T04:05:51.523Z,0
2017-11-12T04:06:31.988Z,0
2017-11-12T04:07:12.486Z,0
2017-11-12T04:07:52.966Z,0
2017-11-12T04:08:33.454Z,0
2017-11-12T04:09:13.949Z,0
2017-11-12T04:09:54.450Z,0
2017-11-12T04:10:34.935Z,0
2017-11-12T04:11:15.429Z,0
2017-11-12T04:11:55.914Z,0
2017-11-12T04:12:36.384Z,0
2017-11-12T04:13:16.875Z,0
2017-11-12T04:13:57.365Z,0
2017-11-12T04:14:37.842Z,0
2017-11-12T04:15:18.335Z,0
2017-11-12T04:15:58.815Z,0
2017-11-12T04:16:39.304Z,0
2017-11-12T04:17:19.786Z,0
2017-11-12T04:18:00.268Z,0
2017-11-12T04:18:40.759Z,0
2017-11-12T04:19:21.244Z,0
2017-11-12T04:20:01.728Z,0
2017-11-12T04:20:42.212Z,0
2017-11-12T04:21:22.713Z,0
2017-11-12T04:22:03.192Z,0
2017-11-12T04:22:43.690Z,0
2017-11-12T04:23:24.174Z,0
2017-11-12T04:24:04.656Z,0
2017-11-12T04:24:45.140Z,0
2017-11-12T04:25:25.614Z,0
2017-11-12T04:26:06.109Z,0
2017-11-12T04:26:46.597Z,0
2017-11-12T04:27:27.062Z,0
2017-11-12T04:28:07.558Z,0
2017-11-12T04:28:48.026Z,0
2017-11-12T04:29:28.516Z,0
2017-11-12T04:30:09.002Z,0
2017-11-12T04:30:49.500Z,0
2017-11-12T04:31:29.992Z,0
2017-11-12T04:32:10.477Z,0
2017-11-12T04:32:50.964Z,0
2017-11-12T04:33:31.439Z,0
2017-11-12T04:34:11.934Z,0
2017-11-12T04:34:52.414Z,0
2017-11-12T04:35:32.912Z,0
2017-11-12T04:36:13.419Z,0
2017-11-12T04:36:53.879Z,0
2017-11-12T04:37:34.351Z,0
2017-11-12T04:38:14.849Z,0
2017-11-12T04:38:55.342Z,0
2017-11-12T04:39:35.827Z,0
2017-11-12T04:40:16.304Z,0
2017-11-12T04:40:56.786Z,0
2017-11-12T04:41:37.283Z,0
2017-11-12T04:42:17.758Z,0
2017-11-12T04:42:58.251Z,0
2017-11-12T04:43:38.750Z,0
2017-11-12T04:44:19.213Z,0
2017-11-12T04:44:59.690Z,0
2017-11-12T04:45:40.173Z,0
2017-11-12T04:46:20.667Z,0
2017-11-12T04:47:01.150Z,0
2017-11-12T04:47:41.642Z,0
2017-11-12T04:48:22.142Z,0
2017-11-12T04:49:02.630Z,0
2017-11-12T04:49:43.120Z,0
2017-11-12T04:50:23.610Z,0
2017-11-12T04:51:04.110Z,0
2017-11-12T04:51:44.598Z,0
2017-11-12T04:52:25.087Z,0
2017-11-12T04:53:05.585Z,0
2017-11-12T04:53:46.084Z,0
2017-11-12T04:54:26.579Z,0
2017-11-12T04:55:07.057Z,0
2017-11-12T04:55:47.539Z,0
2017-11-12T04:56:28.040Z,0
2017-11-12T04:57:08.538Z,0
2017-11-12T04:57:49.022Z,0
2017-11-12T04:58:29.520Z,0
2017-11-12T04:59:10.013Z,0
2017-11-12T04:59:50.493Z,0
2017-11-12T05:00:30.993Z,0
2017-11-12T05:01:11.478Z,0
2017-11-12T05:01:51.961Z,0
2017-11-12T05:02:32.444Z,0
2017-11-12T05:03:12.932Z,0
2017-11-12T05:03:53.428Z,0
2017-11-12T05:04:33.914Z,0
2017-11-12T05:05:14.408Z,0
2017-11-12T05:05:54.898Z,0
2017-11-12T05:06:35.387Z,0
2017-11-12T05:07:15.880Z,0
2017-11-12T05:07:56.377Z,0
2017-11-12T05:08:36.858Z,0
2017-11-12T05:09:17.343Z,0
2017-11-12T05:09:57.844Z,0
2017-11-12T05:10:38.318Z,0
2017-11-12T05:11:18.810Z,0
2017-11-12T05:11:59.289Z,0
2017-11-12T05:12:39.789Z,0
2017-11-12T05:13:20.334Z,0
2017-11-12T05:14:00.800Z,0
2017-11-12T05:14:41.293Z,0
2017-11-12T05:15:21.792Z,0
2017-11-12T05:16:02.285Z,0
2017-11-12T05:16:42.768Z,0
2017-11-12T05:17:23.253Z,0
2017-11-12T05:18:03.758Z,0
2017-11-12T05:18:44.258Z,0
2017-11-12T05:19:24.733Z,0
2017-11-12T05:20:05.243Z,0
2017-11-12T05:20:45.734Z,0
2017-11-12T05:21:26.239Z,0
2017-11-12T05:22:06.732Z,0
2017-11-12T05:22:47.203Z,0
2017-11-12T05:23:27.714Z,0
2017-11-12T05:24:08.197Z,0
2017-11-12T05:24:48.691Z,0
2017-11-12T05:25:29.182Z,0
2017-11-12T05:26:09.689Z,0
2017-11-12T05:26:50.168Z,0
2017-11-12T05:27:30.658Z,0
2017-11-12T05:28:11.145Z,0
2017-11-12T05:28:51.627Z,0
2017-11-12T05:29:32.112Z,0
2017-11-12T05:30:12.601Z,0
2017-11-12T05:30:53.085Z,0
2017-11-12T05:31:33.580Z,0
2017-11-12T05:32:14.071Z,0
2017-11-12T05:32:54.558Z,0
2017-11-12T05:33:35.039Z,0
2017-11-12T05:34:15.522Z,0
2017-11-12T05:34:56.012Z,0
2017-11-12T05:35:36.500Z,0
2017-11-12T05:36:16.977Z,0
2017-11-12T05:36:57.455Z,0
2017-11-12T05:37:37.929Z,0
2017-11-12T05:38:18.435Z,0
2017-11-12T05:38:58.911Z,0
2017-11-12T05:39:39.399Z,0
2017-11-12T05:40:19.889Z,0
2017-11-12T05:41:00.374Z,0
2017-11-12T05:41:40.864Z,0
2017-11-12T05:42:21.358Z,0
2017-11-12T05:43:01.847Z,0
2017-11-12T05:43:42.331Z,0
2017-11-12T05:44:22.830Z,0
2017-11-12T05:45:03.323Z,0
2017-11-12T05:45:43.806Z,0
2017-11-12T05:46:24.305Z,0
2017-11-12T05:47:04.798Z,0
2017-11-12T05:47:45.287Z,0
2017-11-12T05:48:25.767Z,0
2017-11-12T05:49:06.255Z,0
2017-11-12T05:49:46.737Z,0
2017-11-12T05:50:27.201Z,0
2017-11-12T05:51:07.688Z,0
2017-11-12T05:51:48.161Z,0
2017-11-12T05:52:28.664Z,0
2017-11-12T05:53:09.148Z,0
2017-11-12T05:53:49.644Z,0
2017-11-12T05:54:30.153Z,0
2017-11-12T05:55:10.610Z,0
2017-11-12T05:55:51.090Z,0
2017-11-12T05:56:31.589Z,0
2017-11-12T05:57:12.082Z,0
2017-11-12T05:57:52.570Z,0
2017-11-12T05:58:33.052Z,0
2017-11-12T05:59:13.550Z,0
2017-11-12T05:59:54.044Z,0
2017-11-12T06:00:34.524Z,0
2017-11-12T06:01:15.011Z,0
2017-11-12T06:01:55.492Z,0
2017-11-12T06:02:35.981Z,0
2017-11-12T06:03:16.479Z,0
2017-11-12T06:03:56.980Z,0
2017-11-12T06:04:37.469Z,0
2017-11-12T06:05:17.960Z,0
2017-11-12T06:05:58.452Z,0
2017-11-12T06:06:38.942Z,0
2017-11-12T06:07:19.435Z,0
2017-11-12T06:07:59.927Z,0
2017-11-12T06:08:40.413Z,4
2017-11-12T06:09:20.908Z,4
2017-11-12T06:10:01.402Z,4
2017-11-12T06:10:41.885Z,0
2017-11-12T06:11:22.373Z,4
2017-11-12T06:12:02.872Z,4
2017-11-12T06:12:43.362Z,4
2017-11-12T06:13:23.837Z,8
2017-11-12T06:14:04.331Z,4
2017-11-12T06:14:44.830Z,4
2017-11-12T06:15:25.312Z,4
2017-11-12T06:16:05.802Z,8
2017-11-12T06:16:46.294Z,8
2017-11-12T06:17:26.776Z,8
2017-11-12T06:18:07.260Z,12
2017-11-12T06:18:47.771Z,12
2017-11-12T06:19:28.266Z,12
2017-11-12T06:20:08.759Z,16
2017-11-12T06:20:49.258Z,16
2017-11-12T06:21:29.708Z,16
2017-11-12T06:22:10.192Z,20
2017-11-12T06:22:50.690Z,20
2017-11-12T06:23:31.191Z,24
2017-11-12T06:24:11.677Z,24
2017-11-12T06:24:52.165Z,24
2017-11-12T06:25:32.660Z,24
2017-11-12T06:26:13.126Z,28
2017-11-12T06:26:53.613Z,28
2017-11-12T06:27:34.105Z,28
2017-11-12T06:28:14.598Z,28
2017-11-12T06:28:55.083Z,32
2017-11-12T06:29:35.580Z,32
2017-11-12T06:30:16.079Z,36
2017-11-12T06:30:56.567Z,36
2017-11-12T06:31:37.060Z,36
2017-11-12T06:32:17.551Z,36
2017-11-12T06:32:58.033Z,40
2017-11-12T06:33:38.526Z,40
2017-11-12T06:34:19.026Z,44
2017-11-12T06:34:59.512Z,48
2017-11-12T06:35:40.064Z,52
2017-11-12T06:36:20.659Z,60
2017-11-12T06:37:01.258Z,64
2017-11-12T06:37:41.775Z,72
2017-11-12T06:38:22.336Z,72
2017-11-12T06:39:02.906Z,76
2017-11-12T06:39:43.465Z,84
2017-11-12T06:40:24.055Z,88
2017-11-12T06:41:04.656Z,96
2017-11-12T06:41:45.306Z,100
2017-11-12T06:42:25.880Z,112
2017-11-12T06:43:06.512Z,120
2017-11-12T06:43:47.059Z,128
2017-11-12T06:44:27.648Z,136
2017-11-12T06:45:08.208Z,148
2017-11-12T06:45:48.744Z,152
2017-11-12T06:46:29.289Z,152
2017-11-12T06:47:09.806Z,152
2017-11-12T06:47:50.306Z,152
2017-11-12T06:48:30.802Z,148
2017-11-12T06:49:11.296Z,148
2017-11-12T06:49:51.795Z,160
2017-11-12T06:50:32.279Z,164
2017-11-12T06:51:12.763Z,172
2017-11-12T06:51:53.258Z,180
2017-11-12T06:52:33.755Z,180
2017-11-12T06:53:14.250Z,176
2017-11-12T06:53:54.743Z,168
2017-11-12T06:54:35.233Z,164
2017-11-12T06:55:15.717Z,160
2017-11-12T06:55:56.206Z,156
2017-11-12T06:56:36.705Z,156
2017-11-12T06:57:17.201Z,164
2017-11-12T06:57:57.680Z,168
2017-11-12T06:58:38.169Z,172
2017-11-12T06:59:18.651Z,168
2017-11-12T06:59:59.126Z,176
2017-11-12T07:00:39.616Z,180
2017-11-12T07:01:20.120Z,180
2017-11-12T07:02:00.604Z,184
2017-11-12T07:02:41.096Z,184
2017-11-12T07:03:21.588Z,188
2017-11-12T07:04:02.078Z,192
2017-11-12T07:04:42.573Z,196
2017-11-12T07:05:23.068Z,200
2017-11-12T07:06:03.554Z,208
2017-11-12T07:06:44.045Z,212
2017-11-12T07:07:24.546Z,220
2017-11-12T07:08:05.037Z,228
2017-11-12T07:08:45.526Z,236
2017-11-12T07:09:26.022Z,252
2017-11-12T07:10:06.510Z,268
2017-11-12T07:10:46.997Z,292
2017-11-12T07:11:27.494Z,312
2017-11-12T07:12:07.971Z,336
2017-11-12T07:12:48.461Z,360
2017-11-12T07:13:28.952Z,384
2017-11-12T07:14:09.442Z,408
2017-11-12T07:14:49.928Z,428
2017-11-12T07:15:30.428Z,444
2017-11-12T07:16:10.924Z,472
2017-11-12T07:16:51.406Z,492
2017-11-12T07:17:31.897Z,512
2017-11-12T07:18:12.396Z,532
2017-11-12T07:18:52.892Z,544
2017-11-12T07:19:33.386Z,540
2017-11-12T07:20:13.884Z,528
2017-11-12T07:20:54.374Z,508
2017-11-12T07:21:34.856Z,488
2017-11-12T07:22:15.359Z,476
2017-11-12T07:22:55.847Z,464
2017-11-12T07:23:36.333Z,452
2017-11-12T07:24:16.833Z,436
2017-11-12T07:24:57.314Z,424
2017-11-12T07:25:37.801Z,420
2017-11-12T07:26:18.299Z,424
2017-11-12T07:26:58.793Z,428
2017-11-12T07:27:39.261Z,440
2017-11-12T07:28:19.754Z,444
2017-11-12T07:29:00.239Z,448
2017-11-12T07:29:40.724Z,452
2017-11-12T07:30:21.226Z,456
2017-11-12T07:31:01.720Z,460
2017-11-12T07:31:42.195Z,464
2017-11-12T07:32:22.686Z,472
2017-11-12T07:33:03.187Z,472
2017-11-12T07:33:43.665Z,472
2017-11-12T07:34:24.148Z,468
2017-11-12T07:35:04.641Z,468
2017-11-12T07:35:45.135Z,472
2017-11-12T07:36:25.622Z,476
2017-11-12T07:37:06.123Z,492
2017-11-12T07:37:46.618Z,504
2017-11-12T07:38:27.226Z,516
2017-11-12T07:39:07.734Z,528
2017-11-12T07:39:48.219Z,528
2017-11-12T07:40:28.709Z,528
2017-11-12T07:41:09.206Z,528
2017-11-12T07:41:49.694Z,532
2017-11-12T07:42:30.160Z,540
2017-11-12T07:43:10.650Z,540
2017-11-12T07:43:51.142Z,536
2017-11-12T07:44:31.628Z,528
2017-11-12T07:45:12.218Z,520
2017-11-12T07:45:52.745Z,524
2017-11-12T07:46:33.217Z,536
2017-11-12T07:47:13.698Z,552
2017-11-12T07:47:54.198Z,564
2017-11-12T07:48:34.681Z,572
2017-11-12T07:49:15.168Z,576
2017-11-12T07:49:55.667Z,580
2017-11-12T07:50:36.161Z,596
2017-11-12T07:51:16.633Z,620
2017-11-12T07:51:57.175Z,664
2017-11-12T07:52:37.729Z,724
2017-11-12T07:53:18.210Z,800
2017-11-12T07:53:58.702Z,880
2017-11-12T07:54:39.187Z,944
2017-11-12T07:55:19.687Z,988
2017-11-12T07:56:00.196Z,1020
2017-11-12T07:56:40.690Z,1036
2017-11-12T07:57:21.168Z,1032
2017-11-12T07:58:01.667Z,1016
2017-11-12T07:58:42.151Z,1004
2017-11-12T07:59:22.638Z,992
2017-11-12T08:00:03.134Z,996
2017-11-12T08:00:43.621Z,1008
2017-11-12T08:01:24.108Z,1020
2017-11-12T08:02:04.596Z,1028
2017-11-12T08:02:45.100Z,1028
2017-11-12T08:03:25.584Z,1016
2017-11-12T08:04:06.082Z,1004
2017-11-12T08:04:46.579Z,992
2017-11-12T08:05:27.060Z,980
2017-11-12T08:06:07.535Z,972
2017-11-12T08:06:48.036Z,936
2017-11-12T08:07:28.513Z,876
2017-11-12T08:08:08.999Z,828
2017-11-12T08:08:49.495Z,804
2017-11-12T08:09:29.989Z,800
2017-11-12T08:10:10.485Z,800
2017-11-12T08:10:50.988Z,804
2017-11-12T08:11:31.464Z,812
2017-11-12T08:12:11.962Z,820
2017-11-12T08:12:52.427Z,832
2017-11-12T08:13:32.922Z,840
2017-11-12T08:14:13.408Z,848
2017-11-12T08:14:53.897Z,864
2017-11-12T08:15:34.390Z,888
2017-11-12T08:16:14.889Z,912
2017-11-12T08:16:55.376Z,924
2017-11-12T08:17:35.863Z,920
2017-11-12T08:18:16.357Z,876
2017-11-12T08:18:56.842Z,816
2017-11-12T08:19:37.340Z,772
2017-11-12T08:20:17.852Z,760
2017-11-12T08:20:58.335Z,768
2017-11-12T08:21:38.824Z,796
2017-11-12T08:22:19.311Z,856
2017-11-12T08:22:59.794Z,920
2017-11-12T08:23:40.273Z,968
2017-11-12T08:24:20.761Z,1004
2017-11-12T08:25:01.251Z,1024
2017-11-12T08:25:41.739Z,1036
2017-11-12T08:26:22.233Z,1040
2017-11-12T08:27:02.721Z,1028
2017-11-12T08:27:43.204Z,1016
2017-11-12T08:28:23.692Z,1012
2017-11-12T08:29:04.196Z,1044
2017-11-12T08:29:44.692Z,1100
2017-11-12T08:30:25.161Z,1164
2017-11-12T08:31:05.658Z,1216
2017-11-12T08:31:46.135Z,1244
2017-11-12T08:32:26.629Z,1236
2017-11-12T08:33:07.145Z,1192
2017-11-12T08:33:47.614Z,1148
2017-11-12T08:34:28.106Z,1136
2017-11-12T08:35:08.607Z,1128
2017-11-12T08:35:49.087Z,1120
2017-11-12T08:36:29.583Z,1120
2017-11-12T08:37:10.077Z,1132
2017-11-12T08:37:50.572Z,1184
2017-11-12T08:38:31.062Z,1264
2017-11-12T08:39:11.532Z,1308
2017-11-12T08:39:52.023Z,1308
2017-11-12T08:40:32.501Z,1328
2017-11-12T08:41:12.988Z,1372
2017-11-12T08:43:30.772Z,1500
2017-11-12T08:44:11.261Z,1524
2017-11-12T08:44:51.745Z,1528
2017-11-12T08:45:32.225Z,1512
2017-11-12T08:46:12.723Z,1484
2017-11-12T08:46:53.192Z,1472
2017-11-12T08:47:33.681Z,1492
2017-11-12T08:48:14.171Z,1484
2017-11-12T08:48:54.661Z,1416
2017-11-12T08:49:35.135Z,1332
2017-11-12T08:50:15.623Z,1264
2017-11-12T08:50:56.110Z,1228
2017-11-12T08:51:36.588Z,1212
2017-11-12T08:52:17.064Z,1220
2017-11-12T08:52:57.556Z,1228
2017-11-12T08:53:38.031Z,1200
2017-11-12T08:54:18.509Z,1144
2017-11-12T08:54:58.988Z,1064
2017-11-12T08:55:39.486Z,992
2017-11-12T08:56:19.966Z,968
2017-11-12T08:57:00.445Z,972
2017-11-12T08:57:40.933Z,1004
2017-11-12T08:58:21.419Z,1008
2017-11-12T08:59:01.902Z,988
2017-11-12T08:59:42.395Z,996
2017-11-12T09:00:22.894Z,1040
2017-11-12T09:01:03.380Z,1044
2017-11-12T09:01:43.873Z,1044
2017-11-12T09:02:24.360Z,1036
2017-11-12T09:03:04.848Z,1012
2017-11-12T09:03:45.326Z,984
2017-11-12T09:04:25.816Z,976
2017-11-12T09:05:06.308Z,1056
2017-11-12T09:05:46.798Z,1208
2017-11-12T09:06:27.271Z,1332
2017-11-12T09:07:07.760Z,1348
2017-11-12T09:07:48.256Z,1264
2017-11-12T09:08:28.785Z,1140
2017-11-12T09:09:09.239Z,984
2017-11-12T09:09:49.721Z,780
2017-11-12T09:10:30.211Z,632
2017-11-12T09:11:10.691Z,560
2017-11-12T09:11:51.178Z,620
2017-11-12T09:12:31.666Z,864
2017-11-12T09:13:12.151Z,1208
2017-11-12T09:13:52.640Z,1420
2017-11-12T09:14:33.130Z,1432
2017-11-12T09:15:13.618Z,1392
2017-11-12T09:15:54.099Z,1296
2017-11-12T09:16:34.588Z,1172
2017-11-12T09:17:15.069Z,1128
2017-11-12T09:17:55.547Z,1156
2017-11-12T09:18:36.030Z,1168
2017-11-12T09:19:16.519Z,1196
2017-11-12T09:19:57.008Z,1184
2017-11-12T09:20:37.500Z,1176
2017-11-12T09:21:17.991Z,1176
2017-11-12T09:21:58.519Z,1204
2017-11-12T09:22:38.963Z,1276
2017-11-12T09:23:19.435Z,1388
2017-11-12T09:23:59.930Z,1444
2017-11-12T09:24:40.417Z,1416
2017-11-12T09:25:20.911Z,1300
2017-11-12T09:26:01.385Z,1352
2017-11-12T09:26:41.869Z,1484
2017-11-12T09:27:22.365Z,1524
2017-11-12T09:28:02.845Z,1484
2017-11-12T09:28:43.333Z,1364
2017-11-12T09:29:23.831Z,1224
2017-11-12T09:30:04.353Z,1216
2017-11-12T09:30:44.817Z,1264
2017-11-12T09:31:25.315Z,1360
2017-11-12T09:32:05.801Z,1548
2017-11-12T09:32:46.280Z,1716
2017-11-12T09:33:26.762Z,1632
2017-11-12T09:34:07.241Z,1312
2017-11-12T09:34:47.740Z,1048
2017-11-12T09:35:28.226Z,980
2017-11-12T09:36:08.718Z,1100
2017-11-12T09:36:49.202Z,1332
2017-11-12T09:37:29.703Z,1600
2017-11-12T09:38:10.192Z,1756
2017-11-12T09:38:50.668Z,1812
2017-11-12T09:39:31.152Z,1984
2017-11-12T09:40:11.638Z,2160
2017-11-12T09:40:52.132Z,2040
2017-11-12T09:41:32.610Z,1768
2017-11-12T09:42:13.088Z,1704
2017-11-12T09:42:53.572Z,1760
2017-11-12T09:43:34.070Z,1916
2017-11-12T09:44:14.563Z,1956